• Join FlightAware (Why Join?)
  • Login
  • US Flag 
02:22PM EDT


 

Airport Tracker/Info


-or-


 

Live Flight TrackerFlight Track Log ✈ DAL1981 ✈ 18-May-2013 ✈ KALB - KATL

Flight Track Log - Related Links

Times and Time Zones

All times are in EDT time to prevent confusion due to time zone crossing. See the DAL1981 flight status page for this flight to view local times or setup timezone preferences in your user account.

Time Position Orientation Groundspeed Altitude Reporting Facility
EDT Latitude Longitude Course Direction KTS MPH feet Rate Location/Type
06:16AM 42.7694 -73.8089 180° South 146 168 1,300  Level Boston Center
06:17AM 42.8025 -73.8183 348° North 201 231 1,900 2,100 Climbing Boston Center
06:18AM 42.8600 -73.8875 319° Northwest 272 313 4,700 3,000 Climbing Boston Center
06:18AM 42.8950 -73.9281 320° Northwest 280 322 7,100 3,300 Climbing Boston Center
06:19AM 42.5088 -74.1379 200° South  Level Estimated
06:19AM 42.9147 -74.0164 287° West 250 288 10,300  Level Boston Center
06:20AM 42.4284 -74.2493 198° South  Level Estimated
06:20AM 42.9089 -74.1325 266° West 283 326 11,600  Level Boston Center
06:21AM 42.3480 -74.3605 180° South  Level Estimated
06:21AM 42.8406 -74.2297 226° Southwest 297 342 13,500  Level Boston Center
06:22AM 42.7278 -74.2519 188° South 351 404 16,200 2,100 Climbing Boston Center
06:23AM 42.6036 -74.1975 162° South 411 473 18,200 1,560 Climbing Boston Center
06:24AM 42.4856 -74.1489 163° South 427 491 19,700 1,500 Climbing Boston Center
06:25AM 42.3614 -74.0922 161° South 450 518 21,300 1,500 Climbing Boston Center
06:27AM 42.2161 -74.0408 165° South 479 551 23,100 1,500 Climbing Boston Center
06:28AM 42.0561 -74.0003 169° South 491 565 24,600 1,500 Climbing Boston Center
06:29AM 41.9281 -73.9164 154° Southeast 491 565 26,200 1,500 Climbing Boston Center
06:30AM 41.8000 -73.8269 152° Southeast 508 585 27,700 1,440 Climbing Boston Center
06:31AM 41.6825 -73.7131 144° Southeast 508 585 29,100 1,380 Climbing Boston Center
06:32AM 41.5542 -73.6467 159° South 513 590 30,500 1,020 Climbing Boston Center
06:33AM 41.4228 -73.6319 175° South 488 562 31,300 660 Climbing New York Center
06:34AM 41.3147 -73.7075 208° Southwest 430 495 32,000 780 Climbing New York Center
06:35AM 41.2342 -73.8419 231° Southwest 408 470 32,900 780 Climbing New York Center
06:36AM 41.1642 -73.9628 232° Southwest 420 483 33,600 540 Climbing New York Center
06:37AM 41.0986 -74.0778 233° Southwest 420 483 34,000 180 Climbing New York Center
06:38AM 41.0417 -74.1742 232° Southwest 415 478 34,000  Level New York Center
06:39AM 40.9628 -74.3047 231° Southwest 415 478 34,000  Level New York Center
06:40AM 40.8925 -74.4247 232° Southwest 415 478 34,000  Level New York Center
06:41AM 40.8308 -74.5339 233° Southwest 415 478 34,000  Level New York Center
06:42AM 40.7489 -74.6800 234° Southwest 421 484 34,000  Level New York Center
06:43AM 40.6783 -74.7964 231° Southwest 421 484 34,000  Level New York Center
06:44AM 40.6094 -74.9208 234° Southwest 421 484 34,000  Level New York Center
06:45AM 40.5386 -75.0367 231° Southwest 421 484 34,000  Level New York Center
06:46AM 40.4675 -75.1603 233° Southwest 421 484 34,000  Level New York Center
06:47AM 40.3964 -75.2758 231° Southwest 421 484 34,000  Level New York Center
06:48AM 40.3253 -75.3936 232° Southwest 421 484 34,000  Level New York Center
06:49AM 40.2517 -75.5139 231° Southwest 421 484 34,000  Level New York Center
06:50AM 40.1781 -75.6311 231° Southwest 426 490 34,000  Level New York Center
06:51AM 40.1064 -75.7483 231° Southwest 426 490 34,000  Level New York Center
06:52AM 40.0325 -75.8678 231° Southwest 426 490 34,000  Level New York Center
06:53AM 39.9586 -75.9869 231° Southwest 432 497 34,000  Level New York Center
06:54AM 39.8867 -76.1006 230° Southwest 432 497 34,000 -60 Level New York Center
06:56AM 39.7131 -76.3764 231° Southwest 433 498 33,900  Descending Washington Center
06:57AM 39.6353 -76.4914 229° Southwest 433 498 34,000  Climbing Washington Center
06:58AM 39.5489 -76.6197 229° Southwest 433 498 34,000  Level Washington Center
06:59AM 39.4769 -76.7369 232° Southwest 433 498 34,000  Level Washington Center
07:00AM 39.4028 -76.8539 231° Southwest 428 493 34,000  Level Washington Center
07:01AM 39.3286 -76.9706 231° Southwest 428 493 34,000  Level Washington Center
07:02AM 39.2542 -77.0872 231° Southwest 428 493 34,000  Level Washington Center
07:03AM 39.1800 -77.2008 230° Southwest 428 493 34,000  Level Washington Center
07:04AM 39.1033 -77.3142 229° Southwest 428 493 34,000  Level Washington Center
07:05AM 39.0264 -77.4300 229° Southwest 428 493 34,000  Level Washington Center
07:06AM 38.9517 -77.5428 230° Southwest 428 493 34,000  Level Washington Center
07:07AM 38.8814 -77.6450 229° Southwest 428 493 34,000  Level Washington Center
07:08AM 38.7956 -77.7758 230° Southwest 428 493 34,000  Level Washington Center
07:09AM 38.7311 -77.8778 231° Southwest 437 503 34,000  Level Washington Center
07:10AM 38.6539 -77.9922 229° Southwest 427 491 34,000  Level Washington Center
07:11AM 38.5786 -78.1067 230° Southwest 427 491 34,000  Level Washington Center
07:12AM 38.5011 -78.2233 230° Southwest 427 491 34,000  Level Washington Center
07:13AM 38.4256 -78.3372 230° Southwest 427 491 34,000  Level Washington Center
07:14AM 38.3497 -78.4511 230° Southwest 427 491 34,000  Level Washington Center
07:15AM 38.2719 -78.5619 228° Southwest 427 491 34,000  Level Washington Center
07:16AM 38.2003 -78.6753 231° Southwest 427 491 34,000  Level Washington Center
07:17AM 38.1158 -78.7983 229° Southwest 427 491 34,000  Level Washington Center
07:18AM 38.0356 -78.9111 228° Southwest 427 491 34,000  Level Washington Center
07:19AM 37.9594 -79.0236 229° Southwest 427 491 34,000  Level Washington Center
07:20AM 37.8811 -79.1358 229° Southwest 427 491 34,000  Level Washington Center
07:21AM 37.8114 -79.2325 228° Southwest 427 491 34,000  Level Washington Center
07:22AM 37.7308 -79.3439 228° Southwest 427 491 34,000  Level Washington Center
07:23AM 37.6417 -79.4628 227° Southwest 433 498 34,000  Level Washington Center
07:24AM 37.5650 -79.5717 228° Southwest 428 493 34,000  Level Washington Center
07:25AM 37.4864 -79.6775 227° Southwest 428 493 34,000  Level Washington Center
07:26AM 37.4139 -79.7808 229° Southwest 431 496 34,000  Level Washington Center
07:27AM 37.3350 -79.8861 227° Southwest 431 496 34,000  Level Washington Center
07:28AM 37.2494 -80.0014 227° Southwest 426 490 34,000  Level Washington Center
07:30AM 37.1394 -80.1492 227° Southwest 425 489 34,000  Level Atlanta Center
07:31AM 37.0594 -80.2569 227° Southwest 420 483 34,000  Level Atlanta Center
07:32AM 36.9894 -80.3539 228° Southwest 420 483 34,000  Level Atlanta Center
07:33AM 36.9111 -80.4589 227° Southwest 420 483 34,000  Level Atlanta Center
07:34AM 36.8308 -80.5661 227° Southwest 420 483 34,000  Level Atlanta Center
07:35AM 36.7525 -80.6708 227° Southwest 420 483 34,000  Level Atlanta Center
07:36AM 36.6739 -80.7750 227° Southwest 409 471 34,000  Level Atlanta Center
07:37AM 36.5953 -80.8789 227° Southwest 409 471 34,000  Level Atlanta Center
07:38AM 36.5064 -80.9936 226° Southwest 409 471 34,000  Level Atlanta Center
07:39AM 36.4278 -81.0997 227° Southwest 409 471 34,000  Level Atlanta Center
07:40AM 36.3489 -81.2058 227° Southwest 414 476 34,000  Level Atlanta Center
07:41AM 36.2678 -81.3117 226° Southwest 414 476 34,000  Level Atlanta Center
07:42AM 36.1867 -81.4197 227° Southwest 419 482 34,000  Level Atlanta Center
07:43AM 36.1056 -81.5228 226° Southwest 419 482 34,000  Level Atlanta Center
07:44AM 36.0242 -81.6331 228° Southwest 424 488 34,000  Level Atlanta Center
07:45AM 35.9428 -81.7356 226° Southwest 424 488 34,000  Level Atlanta Center
07:46AM 35.8614 -81.8403 226° Southwest 424 488 34,000  Level Atlanta Center
07:47AM 35.7797 -81.9475 227° Southwest 429 494 34,000  Level Atlanta Center
07:48AM 35.6958 -82.0467 224° Southwest 429 494 34,000  Level Atlanta Center
07:49AM 35.6078 -82.1461 223° Southwest 424 488 34,000 -180 Level Atlanta Center
07:50AM 35.5236 -82.2397 222° Southwest 416 479 33,700 -900 Descending Atlanta Center
07:51AM 35.4353 -82.3411 223° Southwest 422 486 32,300 -1,200 Descending Atlanta Center
07:52AM 35.3553 -82.4319 223° Southwest 432 497 31,400 -900 Descending Atlanta Center
07:53AM 35.2647 -82.5381 224° Southwest 444 511 30,500 -780 Descending Atlanta Center
07:54AM 35.1617 -82.6439 220° Southwest 444 511 29,900 -900 Descending Atlanta Center
07:55AM 35.0792 -82.7392 223° Southwest 444 511 28,700 -1,020 Descending Atlanta Center
07:56AM 34.9864 -82.8472 224° Southwest 452 520 27,900 -900 Descending Atlanta Center
07:57AM 34.8853 -82.9600 222° Southwest 457 526 26,900 -840 Descending Atlanta Center
07:58AM 34.7922 -83.0625 222° Southwest 457 526 26,300 -600 Descending Atlanta Center
07:59AM 34.7031 -83.1594 222° Southwest 457 526 25,700 -840 Descending Atlanta Center
08:00AM 34.6142 -83.2639 224° Southwest 448 516 24,700 -1,800 Descending Atlanta Center
08:01AM 34.5250 -83.3606 222° Southwest 442 509 22,100 -2,640 Descending Atlanta Center
08:02AM 34.4400 -83.4569 223° Southwest 432 497 19,500 -2,400 Descending Atlanta Center
08:03AM 34.3567 -83.5481 222° Southwest 415 478 17,300 -2,400 Descending Atlanta Center
08:04AM 34.2800 -83.6342 223° Southwest 393 452 14,800 -2,280 Descending Atlanta Center
08:05AM 34.2111 -83.7097 222° Southwest 388 447 12,800 -1,440 Descending Atlanta Center
08:06AM 34.1364 -83.7903 222° Southwest 372 428 12,000 -420 Descending Atlanta Center
08:07AM 34.0717 -83.8583 221° Southwest 343 395 12,000 -840 Level Atlanta Center
08:07AM 34.0167 -83.9000 212° Southwest 285 328 10,600 -1,740 Descending Atlanta TRACON
08:08AM 33.9667 -83.9667 228° Southwest 278 320 9,100 -900 Descending Atlanta TRACON
08:09AM 33.8833 -83.9833 189° South 281 323 8,900 -420 Descending Atlanta TRACON
08:10AM 33.8672 -83.9789 167° South 265 305 8,600 -660 Descending Atlanta Center
08:11AM 33.7881 -83.9764 178° South 273 314 8,000 -840 Descending Atlanta Center
08:12AM 33.7169 -83.9939 192° South 273 314 7,000 -780 Descending Atlanta Center
08:13AM 33.6711 -84.0614 231° Southwest 250 288 6,500 -720 Descending Atlanta Center
08:14AM 33.6333 -84.1667 247° West 217 250 5,200 -1,080 Descending Atlanta TRACON
08:15AM 33.6333 -84.2500 270° West 212 244 3,800 -1,440 Descending Atlanta TRACON